• Join FlightAware (Why Join?)
  • Login
  • US Flag 
07:28AM EDT


 

Airport Tracker/Info


-or-


 

Live Flight TrackerFlight Track Log ✈ KAP29 ✈ 09-Jun-2013 ✈ KSLK - KBOS

Flight Track Log - Related Links

Times and Time Zones

All times are in EDT time to prevent confusion due to time zone crossing. See the KAP29 flight status page for this flight to view local times or setup timezone preferences in your user account.

Time Position Orientation Groundspeed Altitude Reporting Facility
EDT Latitude Longitude Course Direction KTS MPH feet Rate Location/Type
06:41AM 44.3133 -74.2708 119° Southeast 156 180 6,000  Level Boston Center
06:42AM 44.2914 -74.2150 119° Southeast 138 159 7,400 1,080 Climbing Boston Center
06:43AM 44.2694 -74.1592 119° Southeast 146 168 8,200 660 Climbing Boston Center
06:44AM 44.2472 -74.1008 118° Southeast 160 184 8,800 360 Climbing Boston Center
06:45AM 44.2211 -74.0392 121° Southeast 171 197 9,000 60 Climbing Boston Center
06:46AM 44.1928 -73.9631 117° Southeast 188 216 9,000  Level Boston Center
06:47AM 44.1667 -73.8931 117° Southeast 200 230 9,000  Level Boston Center
06:48AM 44.1425 -73.8231 116° Southeast 200 230 9,000  Level Boston Center
06:49AM 44.1142 -73.7558 120° Southeast 205 236 9,000  Level Boston Center
06:50AM 44.0858 -73.6917 122° Southeast 199 229 9,000  Level Boston Center
06:51AM 44.0614 -73.6244 117° Southeast 199 229 9,000  Level Boston Center
06:52AM 44.0350 -73.5633 121° Southeast 193 222 9,000  Level Boston Center
06:53AM 44.0106 -73.4994 118° Southeast 188 216 9,000  Level Boston Center
06:54AM 43.9861 -73.4383 119° Southeast 188 216 9,000  Level Boston Center
06:55AM 43.9636 -73.3803 118° Southeast 188 216 9,000  Level Boston Center
06:56AM 43.9392 -73.3194 119° Southeast 188 216 9,000  Level Boston Center
06:57AM 43.9125 -73.2556 120° Southeast 188 216 9,000  Level Boston Center
06:58AM 43.8858 -73.1892 119° Southeast 188 216 9,000  Level Boston Center
06:59AM 43.8653 -73.1397 120° Southeast 188 216 9,000  Level Boston Center
07:00AM 43.8344 -73.0617 119° Southeast 188 216 9,000  Level Boston Center
07:01AM 43.8058 -72.9925 120° Southeast 188 216 9,000  Level Boston Center
07:02AM 43.7789 -72.9261 119° Southeast 188 216 9,000  Level Boston Center
07:03AM 43.7542 -72.8625 118° Southeast 188 216 9,000  Level Boston Center
07:04AM 43.7253 -72.7964 121° Southeast 188 216 9,000  Level Boston Center
07:05AM 43.7025 -72.7331 116° Southeast 188 216 9,000  Level Boston Center
07:06AM 43.6778 -72.6783 122° Southeast 193 222 9,000  Level Boston Center
07:07AM 43.6506 -72.6036 117° Southeast 193 222 9,100  Climbing Boston Center
07:08AM 43.6236 -72.5375 119° Southeast 193 222 9,100  Level Boston Center
07:09AM 43.5967 -72.4744 121° Southeast 188 216 9,100  Level Boston Center
07:10AM 43.5694 -72.4114 121° Southeast 188 216 9,100  Level Boston Center
07:11AM 43.5444 -72.3483 119° Southeast 188 216 9,100  Level Boston Center
07:12AM 43.5172 -72.2825 120° Southeast 188 216 9,100  Level Boston Center
07:13AM 43.4903 -72.2169 120° Southeast 193 222 9,100  Level Boston Center
07:14AM 43.4628 -72.1569 122° Southeast 188 216 9,100  Level Boston Center
07:15AM 43.4253 -72.1056 135° Southeast 188 216 9,100 -60 Level Boston Center
07:16AM 43.3917 -72.0572 134° Southeast 193 222 9,000 -60 Descending Boston Center
07:17AM 43.3542 -72.0003 132° Southeast 193 222 9,000  Level Boston Center
07:18AM 43.3225 -71.9492 130° Southeast 193 222 9,000  Level Boston Center
07:19AM 43.2847 -71.8925 132° Southeast 188 216 9,000 -120 Level Boston Center
07:20AM 43.2533 -71.8442 132° Southeast 188 216 8,800 -300 Descending Boston Center
07:21AM 43.2114 -71.7878 136° Southeast 188 216 8,400 -420 Descending Boston Center
07:22AM 43.1756 -71.7342 132° Southeast 198 228 8,000 -420 Descending Boston Center
07:23AM 43.1356 -71.6747 133° Southeast 198 228 7,600 -480 Descending Boston Center
07:24AM 43.1039 -71.6267 132° Southeast 198 228 7,100 -360 Descending Boston Center
07:25AM 43.0639 -71.5678 133° Southeast 198 228 6,900 -120 Descending Boston Center
07:26AM 43.0344 -71.5225 132° Southeast 193 222 6,900 -180 Level Boston Center
07:29AM 42.9500 -71.4000 133° Southeast 187 215 6,400 -300 Descending KA90
07:30AM 42.9167 -71.3500 132° Southeast 187 215 6,100 -180 Descending KA90
07:31AM 42.8833 -71.3000 132° Southeast 179 206 6,100  Level KA90
07:31AM 42.8500 -71.2833 160° South 169 194 6,100  Level KA90
07:32AM 42.8000 -71.2500 154° Southeast 165 190 6,100  Level KA90
07:33AM 42.7500 -71.2333 166° South 165 190 6,100 -120 Level KA90
07:35AM 42.7000 -71.2000 154° Southeast 167 192 5,900 -300 Descending KA90
07:35AM 42.6667 -71.1833 160° South 173 199 5,600 -480 Descending KA90
07:37AM 42.6167 -71.1500 154° Southeast 184 212 5,000 -540 Descending KA90
07:37AM 42.5833 -71.1167 144° Southeast 183 211 4,600 -480 Descending KA90
07:38AM 42.5333 -71.0833 154° Southeast 184 212 4,200 -540 Descending KA90
07:39AM 42.5000 -71.0500 144° Southeast 185 213 3,500 -780 Descending KA90
07:40AM 42.4500 -71.0000 144° Southeast 182 209 2,700 -1,200 Descending KA90
07:41AM 42.4000 -70.9833 166° South 156 180 1,200 -1,500 Descending KA90
07:43AM 42.3538 -70.9987 194° South  Level FlightAware Approximate
07:50AM 42.3500 -71.0000 172° South  Level FlightAware Approximate
07:51AM 42.3630 -71.0064 172° South  Level Estimated